Apgar, Montana
Current Conditions -  °F | °C
As of 4:55 PM on Friday 24 Oct 2014 (Local Time) from KGPI Reporting Station
Clear Clear  
Wind Chill: 52°   Ceiling: Unl
Heat Index: 52°   Visibility: 10mi
Dew Point: 39°   Wind: 5mph
Humidity: 61%   Direction: 130°SE
Pressure: 30.09"   Gusts: NA
Location:  48.5033°N, 113.981°W
Report Text: KGPI 242255Z 13004KT 10SM CLR 11/04 A3009 RMK AO2 SLP196 T01110039
Loading
Personal Weather Stations






























Interactive Weather Map
Tropical Storm Tracking
New forecast layout! Learn more

10-Day Weather Forecast

Advertisements
Track Severe Weather on mobile